sensor_id;sensor_type;location;lat;lon;timestamp;P1;durP1;ratioP1;P2;durP2;ratioP2
21258;SDS011;10787;53.364;-1.480;2022-09-30T00:01:33;17.50;;;8.87;;
21258;SDS011;10787;53.364;-1.480;2022-09-30T00:04:01;17.87;;;8.37;;
21258;SDS011;10787;53.364;-1.480;2022-09-30T00:06:27;21.67;;;9.27;;
21258;SDS011;10787;53.364;-1.480;2022-09-30T00:08:55;19.67;;;8.80;;
21258;SDS011;10787;53.364;-1.480;2022-09-30T00:11:23;16.87;;;9.13;;
21258;SDS011;10787;53.364;-1.480;2022-09-30T00:13:52;16.23;;;8.90;;
21258;SDS011;10787;53.364;-1.480;2022-09-30T00:16:20;18.43;;;8.47;;
21258;SDS011;10787;53.364;-1.480;2022-09-30T00:18:47;16.13;;;8.53;;
21258;SDS011;10787;53.364;-1.480;2022-09-30T00:21:14;18.03;;;8.40;;
21258;SDS011;10787;53.364;-1.480;2022-09-30T00:23:40;15.33;;;7.60;;
21258;SDS011;10787;53.364;-1.480;2022-09-30T00:26:10;16.33;;;7.63;;
21258;SDS011;10787;53.364;-1.480;2022-09-30T00:28:39;20.37;;;8.03;;
21258;SDS011;10787;53.364;-1.480;2022-09-30T00:31:07;16.67;;;7.90;;
21258;SDS011;10787;53.364;-1.480;2022-09-30T00:33:36;17.07;;;7.60;;
21258;SDS011;10787;53.364;-1.480;2022-09-30T00:36:02;18.60;;;7.47;;
21258;SDS011;10787;53.364;-1.480;2022-09-30T00:38:28;14.23;;;7.30;;
21258;SDS011;10787;53.364;-1.480;2022-09-30T00:40:54;18.53;;;6.87;;
21258;SDS011;10787;53.364;-1.480;2022-09-30T00:48:55;14.27;;;6.50;;
21258;SDS011;10787;53.364;-1.480;2022-09-30T00:51:55;17.77;;;7.27;;
21258;SDS011;10787;53.364;-1.480;2022-09-30T00:54:18;15.80;;;6.70;;
21258;SDS011;10787;53.364;-1.480;2022-09-30T00:56:48;19.40;;;6.90;;
21258;SDS011;10787;53.364;-1.480;2022-09-30T00:59:33;14.27;;;7.10;;
21258;SDS011;10787;53.364;-1.480;2022-09-30T01:02:05;15.63;;;6.53;;
21258;SDS011;10787;53.364;-1.480;2022-09-30T01:04:34;12.93;;;6.60;;
21258;SDS011;10787;53.364;-1.480;2022-09-30T01:07:02;16.23;;;6.73;;
21258;SDS011;10787;53.364;-1.480;2022-09-30T01:09:32;18.63;;;6.70;;
21258;SDS011;10787;53.364;-1.480;2022-09-30T01:12:07;17.00;;;6.33;;
21258;SDS011;10787;53.364;-1.480;2022-09-30T01:14:40;11.67;;;6.20;;
21258;SDS011;10787;53.364;-1.480;2022-09-30T01:22:29;18.57;;;6.40;;
21258;SDS011;10787;53.364;-1.480;2022-09-30T01:31:44;13.07;;;5.90;;
21258;SDS011;10787;53.364;-1.480;2022-09-30T01:34:02;16.00;;;6.20;;
21258;SDS011;10787;53.364;-1.480;2022-09-30T01:41:54;16.80;;;6.33;;
21258;SDS011;10787;53.364;-1.480;2022-09-30T01:44:37;11.87;;;6.63;;
21258;SDS011;10787;53.364;-1.480;2022-09-30T01:47:09;16.43;;;6.37;;
21258;SDS011;10787;53.364;-1.480;2022-09-30T01:49:55;14.60;;;6.50;;
21258;SDS011;10787;53.364;-1.480;2022-09-30T01:57:44;19.00;;;5.70;;
21258;SDS011;10787;53.364;-1.480;2022-09-30T02:00:14;11.87;;;5.80;;
21258;SDS011;10787;53.364;-1.480;2022-09-30T02:08:27;15.23;;;5.70;;
21258;SDS011;10787;53.364;-1.480;2022-09-30T02:11:01;15.77;;;6.30;;
21258;SDS011;10787;53.364;-1.480;2022-09-30T02:13:39;12.40;;;5.80;;
21258;SDS011;10787;53.364;-1.480;2022-09-30T02:16:22;13.83;;;5.93;;
21258;SDS011;10787;53.364;-1.480;2022-09-30T02:18:53;15.60;;;6.07;;
21258;SDS011;10787;53.364;-1.480;2022-09-30T02:21:30;15.00;;;6.33;;
21258;SDS011;10787;53.364;-1.480;2022-09-30T02:24:03;14.80;;;6.13;;
21258;SDS011;10787;53.364;-1.480;2022-09-30T02:26:36;17.53;;;6.00;;
21258;SDS011;10787;53.364;-1.480;2022-09-30T02:29:11;18.93;;;6.00;;
21258;SDS011;10787;53.364;-1.480;2022-09-30T02:31:43;16.27;;;7.23;;
21258;SDS011;10787;53.364;-1.480;2022-09-30T02:34:17;13.23;;;6.13;;
21258;SDS011;10787;53.364;-1.480;2022-09-30T02:36:59;16.17;;;6.07;;
21258;SDS011;10787;53.364;-1.480;2022-09-30T02:42:13;12.47;;;5.60;;
21258;SDS011;10787;53.364;-1.480;2022-09-30T02:44:45;12.50;;;6.20;;
21258;SDS011;10787;53.364;-1.480;2022-09-30T02:47:30;15.97;;;5.80;;
21258;SDS011;10787;53.364;-1.480;2022-09-30T02:52:47;13.07;;;5.90;;
21258;SDS011;10787;53.364;-1.480;2022-09-30T02:55:29;15.87;;;5.70;;
21258;SDS011;10787;53.364;-1.480;2022-09-30T02:58:03;11.27;;;5.50;;
21258;SDS011;10787;53.364;-1.480;2022-09-30T03:00:34;12.63;;;6.10;;
21258;SDS011;10787;53.364;-1.480;2022-09-30T03:03:03;11.33;;;5.83;;
21258;SDS011;10787;53.364;-1.480;2022-09-30T03:05:33;15.00;;;6.27;;
21258;SDS011;10787;53.364;-1.480;2022-09-30T03:07:59;11.87;;;6.10;;
21258;SDS011;10787;53.364;-1.480;2022-09-30T03:10:26;14.80;;;5.80;;
21258;SDS011;10787;53.364;-1.480;2022-09-30T03:18:24;14.93;;;6.00;;
21258;SDS011;10787;53.364;-1.480;2022-09-30T03:21:06;12.43;;;5.63;;
21258;SDS011;10787;53.364;-1.480;2022-09-30T03:26:40;14.07;;;5.30;;
21258;SDS011;10787;53.364;-1.480;2022-09-30T03:29:59;10.83;;;5.10;;
21258;SDS011;10787;53.364;-1.480;2022-09-30T03:40:08;12.20;;;5.33;;
21258;SDS011;10787;53.364;-1.480;2022-09-30T03:43:04;12.47;;;5.90;;
21258;SDS011;10787;53.364;-1.480;2022-09-30T03:45:46;10.20;;;5.47;;
21258;SDS011;10787;53.364;-1.480;2022-09-30T03:48:19;11.70;;;5.90;;
21258;SDS011;10787;53.364;-1.480;2022-09-30T03:50:46;10.33;;;5.47;;
21258;SDS011;10787;53.364;-1.480;2022-09-30T03:53:13;10.60;;;5.50;;
21258;SDS011;10787;53.364;-1.480;2022-09-30T03:55:45;13.00;;;5.47;;
21258;SDS011;10787;53.364;-1.480;2022-09-30T03:58:16;9.30;;;5.27;;
21258;SDS011;10787;53.364;-1.480;2022-09-30T04:00:47;11.23;;;5.83;;
21258;SDS011;10787;53.364;-1.480;2022-09-30T04:03:15;13.97;;;5.53;;
21258;SDS011;10787;53.364;-1.480;2022-09-30T04:05:41;8.97;;;5.27;;
21258;SDS011;10787;53.364;-1.480;2022-09-30T04:08:07;9.90;;;5.40;;
21258;SDS011;10787;53.364;-1.480;2022-09-30T04:10:34;10.87;;;6.10;;
21258;SDS011;10787;53.364;-1.480;2022-09-30T04:13:00;11.47;;;6.33;;
21258;SDS011;10787;53.364;-1.480;2022-09-30T04:15:26;15.43;;;6.43;;
21258;SDS011;10787;53.364;-1.480;2022-09-30T04:17:52;11.67;;;5.97;;
21258;SDS011;10787;53.364;-1.480;2022-09-30T04:20:18;11.80;;;6.00;;
21258;SDS011;10787;53.364;-1.480;2022-09-30T04:22:44;14.37;;;6.20;;
21258;SDS011;10787;53.364;-1.480;2022-09-30T04:25:10;10.47;;;5.97;;
21258;SDS011;10787;53.364;-1.480;2022-09-30T04:27:37;13.67;;;6.10;;
21258;SDS011;10787;53.364;-1.480;2022-09-30T04:30:03;13.70;;;6.37;;
21258;SDS011;10787;53.364;-1.480;2022-09-30T04:32:30;15.40;;;7.07;;
21258;SDS011;10787;53.364;-1.480;2022-09-30T04:34:57;15.90;;;6.73;;
21258;SDS011;10787;53.364;-1.480;2022-09-30T04:37:23;14.33;;;7.43;;
21258;SDS011;10787;53.364;-1.480;2022-09-30T04:39:49;14.60;;;7.43;;
21258;SDS011;10787;53.364;-1.480;2022-09-30T04:42:15;18.50;;;8.00;;
21258;SDS011;10787;53.364;-1.480;2022-09-30T04:44:42;16.73;;;8.07;;
21258;SDS011;10787;53.364;-1.480;2022-09-30T04:47:08;16.53;;;8.83;;
21258;SDS011;10787;53.364;-1.480;2022-09-30T04:49:34;16.50;;;7.90;;
21258;SDS011;10787;53.364;-1.480;2022-09-30T04:52:00;15.80;;;8.30;;
21258;SDS011;10787;53.364;-1.480;2022-09-30T04:54:26;14.03;;;8.27;;
21258;SDS011;10787;53.364;-1.480;2022-09-30T04:56:52;17.13;;;8.37;;
21258;SDS011;10787;53.364;-1.480;2022-09-30T04:59:17;16.60;;;7.60;;
21258;SDS011;10787;53.364;-1.480;2022-09-30T05:01:43;15.93;;;7.50;;
21258;SDS011;10787;53.364;-1.480;2022-09-30T05:04:09;17.53;;;7.77;;
21258;SDS011;10787;53.364;-1.480;2022-09-30T05:06:40;14.87;;;7.90;;
21258;SDS011;10787;53.364;-1.480;2022-09-30T05:09:06;15.33;;;7.70;;
21258;SDS011;10787;53.364;-1.480;2022-09-30T05:11:31;18.73;;;7.67;;
21258;SDS011;10787;53.364;-1.480;2022-09-30T05:14:13;16.60;;;8.40;;
21258;SDS011;10787;53.364;-1.480;2022-09-30T05:16:38;15.83;;;8.00;;
21258;SDS011;10787;53.364;-1.480;2022-09-30T05:19:04;17.63;;;8.10;;
21258;SDS011;10787;53.364;-1.480;2022-09-30T05:21:30;16.27;;;8.77;;
21258;SDS011;10787;53.364;-1.480;2022-09-30T05:23:56;16.40;;;8.40;;
21258;SDS011;10787;53.364;-1.480;2022-09-30T05:26:22;19.07;;;8.20;;
21258;SDS011;10787;53.364;-1.480;2022-09-30T05:28:48;15.27;;;8.50;;
21258;SDS011;10787;53.364;-1.480;2022-09-30T05:31:14;19.50;;;8.30;;
21258;SDS011;10787;53.364;-1.480;2022-09-30T05:33:40;20.47;;;8.50;;
21258;SDS011;10787;53.364;-1.480;2022-09-30T05:36:07;16.07;;;8.33;;
21258;SDS011;10787;53.364;-1.480;2022-09-30T05:38:36;16.47;;;8.43;;
21258;SDS011;10787;53.364;-1.480;2022-09-30T05:41:06;15.03;;;7.37;;
21258;SDS011;10787;53.364;-1.480;2022-09-30T05:43:33;15.30;;;7.37;;
21258;SDS011;10787;53.364;-1.480;2022-09-30T05:46:02;16.97;;;7.20;;
21258;SDS011;10787;53.364;-1.480;2022-09-30T05:48:27;15.57;;;7.43;;
21258;SDS011;10787;53.364;-1.480;2022-09-30T05:50:54;17.37;;;7.57;;
21258;SDS011;10787;53.364;-1.480;2022-09-30T05:53:21;13.43;;;6.90;;
21258;SDS011;10787;53.364;-1.480;2022-09-30T05:55:48;13.13;;;6.80;;
21258;SDS011;10787;53.364;-1.480;2022-09-30T05:58:15;15.00;;;6.30;;
21258;SDS011;10787;53.364;-1.480;2022-09-30T06:00:42;12.30;;;5.90;;
21258;SDS011;10787;53.364;-1.480;2022-09-30T06:03:09;13.93;;;5.77;;
21258;SDS011;10787;53.364;-1.480;2022-09-30T06:05:35;14.63;;;5.67;;
21258;SDS011;10787;53.364;-1.480;2022-09-30T06:08:02;9.53;;;5.20;;
21258;SDS011;10787;53.364;-1.480;2022-09-30T06:10:28;12.13;;;5.30;;
21258;SDS011;10787;53.364;-1.480;2022-09-30T06:12:55;10.83;;;5.73;;
21258;SDS011;10787;53.364;-1.480;2022-09-30T06:15:23;12.60;;;5.57;;
21258;SDS011;10787;53.364;-1.480;2022-09-30T06:17:52;11.37;;;5.83;;
21258;SDS011;10787;53.364;-1.480;2022-09-30T06:20:18;15.20;;;6.30;;
21258;SDS011;10787;53.364;-1.480;2022-09-30T06:22:44;13.27;;;6.33;;
21258;SDS011;10787;53.364;-1.480;2022-09-30T06:25:10;12.00;;;6.33;;
21258;SDS011;10787;53.364;-1.480;2022-09-30T06:27:36;13.60;;;6.50;;
21258;SDS011;10787;53.364;-1.480;2022-09-30T06:30:05;13.03;;;6.73;;
21258;SDS011;10787;53.364;-1.480;2022-09-30T06:32:32;14.10;;;6.63;;
21258;SDS011;10787;53.364;-1.480;2022-09-30T06:34:58;12.43;;;7.00;;
21258;SDS011;10787;53.364;-1.480;2022-09-30T06:37:23;16.03;;;7.77;;
21258;SDS011;10787;53.364;-1.480;2022-09-30T06:39:49;13.70;;;8.33;;
21258;SDS011;10787;53.364;-1.480;2022-09-30T06:42:16;18.70;;;8.63;;
21258;SDS011;10787;53.364;-1.480;2022-09-30T06:44:43;14.80;;;8.03;;
21258;SDS011;10787;53.364;-1.480;2022-09-30T06:47:11;19.03;;;10.80;;
21258;SDS011;10787;53.364;-1.480;2022-09-30T06:49:38;15.53;;;8.07;;
21258;SDS011;10787;53.364;-1.480;2022-09-30T06:52:04;16.20;;;8.60;;
21258;SDS011;10787;53.364;-1.480;2022-09-30T06:54:30;16.00;;;8.40;;
21258;SDS011;10787;53.364;-1.480;2022-09-30T06:56:56;19.17;;;9.67;;
21258;SDS011;10787;53.364;-1.480;2022-09-30T06:59:24;21.07;;;10.07;;
21258;SDS011;10787;53.364;-1.480;2022-09-30T07:01:50;21.13;;;9.90;;
21258;SDS011;10787;53.364;-1.480;2022-09-30T07:04:17;20.67;;;10.27;;
21258;SDS011;10787;53.364;-1.480;2022-09-30T07:06:43;18.57;;;10.27;;
21258;SDS011;10787;53.364;-1.480;2022-09-30T07:09:09;19.03;;;11.13;;
21258;SDS011;10787;53.364;-1.480;2022-09-30T07:11:35;18.97;;;10.47;;
21258;SDS011;10787;53.364;-1.480;2022-09-30T07:14:03;16.70;;;10.37;;
21258;SDS011;10787;53.364;-1.480;2022-09-30T07:16:30;18.63;;;9.77;;
21258;SDS011;10787;53.364;-1.480;2022-09-30T07:18:56;21.50;;;10.80;;
21258;SDS011;10787;53.364;-1.480;2022-09-30T07:21:23;20.00;;;10.90;;
21258;SDS011;10787;53.364;-1.480;2022-09-30T07:23:51;16.00;;;9.77;;
21258;SDS011;10787;53.364;-1.480;2022-09-30T07:26:18;16.90;;;9.87;;
21258;SDS011;10787;53.364;-1.480;2022-09-30T07:28:46;17.40;;;10.10;;
21258;SDS011;10787;53.364;-1.480;2022-09-30T07:31:14;16.70;;;9.70;;
21258;SDS011;10787;53.364;-1.480;2022-09-30T07:33:45;17.60;;;9.90;;
21258;SDS011;10787;53.364;-1.480;2022-09-30T07:36:12;16.83;;;9.77;;
21258;SDS011;10787;53.364;-1.480;2022-09-30T07:38:43;19.40;;;10.20;;
21258;SDS011;10787;53.364;-1.480;2022-09-30T07:41:13;18.13;;;10.10;;
21258;SDS011;10787;53.364;-1.480;2022-09-30T07:43:42;18.40;;;9.43;;
21258;SDS011;10787;53.364;-1.480;2022-09-30T07:46:11;18.23;;;10.63;;
21258;SDS011;10787;53.364;-1.480;2022-09-30T07:48:42;20.57;;;10.10;;
21258;SDS011;10787;53.364;-1.480;2022-09-30T07:51:19;21.53;;;10.30;;
21258;SDS011;10787;53.364;-1.480;2022-09-30T07:53:49;19.43;;;10.47;;
21258;SDS011;10787;53.364;-1.480;2022-09-30T07:56:16;17.33;;;9.50;;
21258;SDS011;10787;53.364;-1.480;2022-09-30T07:58:44;17.57;;;9.27;;
21258;SDS011;10787;53.364;-1.480;2022-09-30T08:01:10;16.30;;;8.77;;
21258;SDS011;10787;53.364;-1.480;2022-09-30T08:03:37;13.90;;;8.70;;
21258;SDS011;10787;53.364;-1.480;2022-09-30T08:06:16;13.40;;;8.80;;
21258;SDS011;10787;53.364;-1.480;2022-09-30T08:08:43;18.60;;;8.80;;
21258;SDS011;10787;53.364;-1.480;2022-09-30T08:11:10;13.13;;;7.90;;
21258;SDS011;10787;53.364;-1.480;2022-09-30T08:13:38;13.80;;;8.30;;
21258;SDS011;10787;53.364;-1.480;2022-09-30T08:16:03;13.57;;;7.80;;
21258;SDS011;10787;53.364;-1.480;2022-09-30T08:18:29;12.60;;;7.67;;
21258;SDS011;10787;53.364;-1.480;2022-09-30T08:20:56;11.57;;;7.00;;
21258;SDS011;10787;53.364;-1.480;2022-09-30T08:23:27;14.10;;;7.73;;
21258;SDS011;10787;53.364;-1.480;2022-09-30T08:25:59;10.87;;;7.27;;
21258;SDS011;10787;53.364;-1.480;2022-09-30T08:28:26;11.63;;;7.33;;
21258;SDS011;10787;53.364;-1.480;2022-09-30T08:30:55;12.07;;;6.97;;
21258;SDS011;10787;53.364;-1.480;2022-09-30T08:33:27;11.90;;;6.77;;
21258;SDS011;10787;53.364;-1.480;2022-09-30T08:35:53;13.17;;;7.00;;
21258;SDS011;10787;53.364;-1.480;2022-09-30T08:38:22;13.07;;;7.57;;
21258;SDS011;10787;53.364;-1.480;2022-09-30T08:40:58;10.43;;;7.20;;
21258;SDS011;10787;53.364;-1.480;2022-09-30T08:43:47;14.97;;;7.57;;
21258;SDS011;10787;53.364;-1.480;2022-09-30T08:52:00;14.10;;;8.13;;
21258;SDS011;10787;53.364;-1.480;2022-09-30T08:54:30;15.37;;;9.00;;
21258;SDS011;10787;53.364;-1.480;2022-09-30T08:56:59;13.03;;;8.77;;
21258;SDS011;10787;53.364;-1.480;2022-09-30T08:59:37;15.50;;;9.40;;
21258;SDS011;10787;53.364;-1.480;2022-09-30T09:02:30;14.23;;;8.87;;
21258;SDS011;10787;53.364;-1.480;2022-09-30T09:05:00;15.03;;;9.37;;
21258;SDS011;10787;53.364;-1.480;2022-09-30T09:23:58;14.63;;;10.40;;
21258;SDS011;10787;53.364;-1.480;2022-09-30T09:26:26;15.37;;;10.10;;
21258;SDS011;10787;53.364;-1.480;2022-09-30T09:31:48;16.10;;;10.90;;
21258;SDS011;10787;53.364;-1.480;2022-09-30T09:34:14;17.90;;;10.83;;
21258;SDS011;10787;53.364;-1.480;2022-09-30T09:47:29;18.40;;;12.87;;
21258;SDS011;10787;53.364;-1.480;2022-09-30T09:49:56;17.03;;;12.40;;
21258;SDS011;10787;53.364;-1.480;2022-09-30T09:52:27;18.13;;;13.40;;
21258;SDS011;10787;53.364;-1.480;2022-09-30T09:55:21;17.00;;;13.17;;
21258;SDS011;10787;53.364;-1.480;2022-09-30T09:57:47;22.13;;;14.07;;
21258;SDS011;10787;53.364;-1.480;2022-09-30T10:00:31;21.23;;;14.37;;
21258;SDS011;10787;53.364;-1.480;2022-09-30T10:03:32;23.53;;;14.63;;
21258;SDS011;10787;53.364;-1.480;2022-09-30T10:08:29;19.57;;;13.80;;
21258;SDS011;10787;53.364;-1.480;2022-09-30T10:10:58;21.73;;;14.87;;
21258;SDS011;10787;53.364;-1.480;2022-09-30T10:16:02;21.97;;;15.00;;
21258;SDS011;10787;53.364;-1.480;2022-09-30T10:18:31;21.87;;;15.77;;
21258;SDS011;10787;53.364;-1.480;2022-09-30T10:20:59;23.47;;;16.30;;
21258;SDS011;10787;53.364;-1.480;2022-09-30T10:23:30;21.90;;;15.13;;
21258;SDS011;10787;53.364;-1.480;2022-09-30T10:26:01;22.37;;;15.67;;
21258;SDS011;10787;53.364;-1.480;2022-09-30T10:28:31;20.27;;;15.40;;
21258;SDS011;10787;53.364;-1.480;2022-09-30T10:31:05;22.70;;;16.20;;
21258;SDS011;10787;53.364;-1.480;2022-09-30T10:33:46;20.47;;;15.10;;
21258;SDS011;10787;53.364;-1.480;2022-09-30T10:36:18;22.00;;;15.23;;
21258;SDS011;10787;53.364;-1.480;2022-09-30T10:41:23;20.83;;;15.27;;
21258;SDS011;10787;53.364;-1.480;2022-09-30T10:43:52;20.17;;;15.13;;
21258;SDS011;10787;53.364;-1.480;2022-09-30T10:46:21;20.70;;;14.60;;
21258;SDS011;10787;53.364;-1.480;2022-09-30T10:48:49;22.20;;;14.17;;
21258;SDS011;10787;53.364;-1.480;2022-09-30T10:51:31;20.17;;;14.80;;
21258;SDS011;10787;53.364;-1.480;2022-09-30T10:53:59;19.97;;;13.93;;
21258;SDS011;10787;53.364;-1.480;2022-09-30T10:56:32;20.27;;;14.00;;
21258;SDS011;10787;53.364;-1.480;2022-09-30T11:02:16;17.90;;;13.60;;
21258;SDS011;10787;53.364;-1.480;2022-09-30T11:10:35;16.57;;;12.20;;
21258;SDS011;10787;53.364;-1.480;2022-09-30T11:18:14;16.80;;;12.05;;
21258;SDS011;10787;53.364;-1.480;2022-09-30T11:20:53;16.07;;;11.63;;
21258;SDS011;10787;53.364;-1.480;2022-09-30T11:23:30;15.43;;;11.83;;
21258;SDS011;10787;53.364;-1.480;2022-09-30T11:26:16;14.67;;;11.70;;
21258;SDS011;10787;53.364;-1.480;2022-09-30T11:29:08;15.57;;;11.40;;
21258;SDS011;10787;53.364;-1.480;2022-09-30T11:31:51;16.40;;;12.10;;
21258;SDS011;10787;53.364;-1.480;2022-09-30T11:43:14;14.77;;;11.57;;
21258;SDS011;10787;53.364;-1.480;2022-09-30T11:46:01;14.23;;;11.60;;
21258;SDS011;10787;53.364;-1.480;2022-09-30T11:49:10;14.70;;;10.93;;
21258;SDS011;10787;53.364;-1.480;2022-09-30T11:51:54;15.63;;;11.50;;
21258;SDS011;10787;53.364;-1.480;2022-09-30T11:59:39;18.27;;;12.80;;
21258;SDS011;10787;53.364;-1.480;2022-09-30T12:02:34;18.93;;;12.07;;
21258;SDS011;10787;53.364;-1.480;2022-09-30T12:05:23;16.40;;;12.27;;
21258;SDS011;10787;53.364;-1.480;2022-09-30T12:07:59;16.83;;;11.87;;
21258;SDS011;10787;53.364;-1.480;2022-09-30T12:10:32;18.60;;;12.37;;
21258;SDS011;10787;53.364;-1.480;2022-09-30T12:13:03;16.63;;;12.53;;
21258;SDS011;10787;53.364;-1.480;2022-09-30T12:15:36;16.47;;;11.90;;
21258;SDS011;10787;53.364;-1.480;2022-09-30T12:18:08;17.57;;;11.83;;
21258;SDS011;10787;53.364;-1.480;2022-09-30T12:20:42;16.40;;;10.83;;
21258;SDS011;10787;53.364;-1.480;2022-09-30T12:26:10;16.70;;;11.23;;
21258;SDS011;10787;53.364;-1.480;2022-09-30T12:34:37;15.90;;;10.60;;
21258;SDS011;10787;53.364;-1.480;2022-09-30T12:40:05;13.03;;;9.40;;
21258;SDS011;10787;53.364;-1.480;2022-09-30T12:45:43;12.43;;;8.70;;
21258;SDS011;10787;53.364;-1.480;2022-09-30T12:48:41;13.60;;;7.90;;
21258;SDS011;10787;53.364;-1.480;2022-09-30T12:51:24;11.83;;;7.63;;
21258;SDS011;10787;53.364;-1.480;2022-09-30T12:54:01;11.20;;;7.43;;
21258;SDS011;10787;53.364;-1.480;2022-09-30T12:56:35;12.93;;;7.33;;
21258;SDS011;10787;53.364;-1.480;2022-09-30T12:59:04;11.50;;;6.53;;
21258;SDS011;10787;53.364;-1.480;2022-09-30T13:01:34;9.83;;;6.10;;
21258;SDS011;10787;53.364;-1.480;2022-09-30T13:11:42;7.10;;;4.43;;
21258;SDS011;10787;53.364;-1.480;2022-09-30T13:19:46;5.90;;;4.27;;
21258;SDS011;10787;53.364;-1.480;2022-09-30T13:43:06;4.67;;;3.30;;
21258;SDS011;10787;53.364;-1.480;2022-09-30T13:45:36;4.73;;;2.80;;
21258;SDS011;10787;53.364;-1.480;2022-09-30T13:50:41;4.70;;;3.00;;
21258;SDS011;10787;53.364;-1.480;2022-09-30T13:53:19;4.47;;;3.00;;
21258;SDS011;10787;53.364;-1.480;2022-09-30T13:55:52;4.80;;;2.70;;
21258;SDS011;10787;53.364;-1.480;2022-09-30T14:07:10;3.83;;;2.50;;
21258;SDS011;10787;53.364;-1.480;2022-09-30T14:12:19;2.50;;;2.00;;
21258;SDS011;10787;53.364;-1.480;2022-09-30T14:23:33;4.97;;;2.10;;
21258;SDS011;10787;53.364;-1.480;2022-09-30T14:31:19;3.17;;;2.10;;
21258;SDS011;10787;53.364;-1.480;2022-09-30T14:33:46;2.93;;;1.80;;
21258;SDS011;10787;53.364;-1.480;2022-09-30T14:36:14;3.13;;;1.77;;
21258;SDS011;10787;53.364;-1.480;2022-09-30T14:38:44;3.07;;;1.60;;
21258;SDS011;10787;53.364;-1.480;2022-09-30T14:41:14;2.77;;;1.90;;
21258;SDS011;10787;53.364;-1.480;2022-09-30T14:43:45;2.00;;;1.80;;
21258;SDS011;10787;53.364;-1.480;2022-09-30T14:48:58;2.87;;;1.80;;
21258;SDS011;10787;53.364;-1.480;2022-09-30T14:51:37;3.73;;;1.90;;
21258;SDS011;10787;53.364;-1.480;2022-09-30T14:54:18;2.20;;;1.57;;
21258;SDS011;10787;53.364;-1.480;2022-09-30T14:56:46;1.57;;;1.40;;
21258;SDS011;10787;53.364;-1.480;2022-09-30T14:59:21;2.43;;;1.60;;
21258;SDS011;10787;53.364;-1.480;2022-09-30T15:01:51;2.07;;;1.53;;
21258;SDS011;10787;53.364;-1.480;2022-09-30T15:04:26;1.70;;;1.50;;
21258;SDS011;10787;53.364;-1.480;2022-09-30T15:07:04;2.50;;;1.57;;
21258;SDS011;10787;53.364;-1.480;2022-09-30T15:12:04;3.47;;;1.60;;
21258;SDS011;10787;53.364;-1.480;2022-09-30T15:14:43;2.00;;;1.50;;
21258;SDS011;10787;53.364;-1.480;2022-09-30T15:17:18;2.40;;;1.60;;
21258;SDS011;10787;53.364;-1.480;2022-09-30T15:19:46;2.10;;;1.40;;
21258;SDS011;10787;53.364;-1.480;2022-09-30T15:22:14;2.50;;;1.80;;
21258;SDS011;10787;53.364;-1.480;2022-09-30T15:24:41;2.43;;;1.80;;
21258;SDS011;10787;53.364;-1.480;2022-09-30T15:27:29;2.77;;;1.93;;
21258;SDS011;10787;53.364;-1.480;2022-09-30T15:29:58;3.57;;;2.30;;
21258;SDS011;10787;53.364;-1.480;2022-09-30T15:32:26;2.60;;;2.00;;
21258;SDS011;10787;53.364;-1.480;2022-09-30T15:34:55;3.40;;;2.33;;
21258;SDS011;10787;53.364;-1.480;2022-09-30T15:37:25;3.30;;;2.17;;
21258;SDS011;10787;53.364;-1.480;2022-09-30T15:39:57;3.00;;;1.77;;
21258;SDS011;10787;53.364;-1.480;2022-09-30T15:42:44;3.47;;;2.30;;
21258;SDS011;10787;53.364;-1.480;2022-09-30T15:45:26;3.53;;;2.50;;
21258;SDS011;10787;53.364;-1.480;2022-09-30T15:47:57;2.87;;;2.47;;
21258;SDS011;10787;53.364;-1.480;2022-09-30T15:53:22;5.73;;;4.40;;
21258;SDS011;10787;53.364;-1.480;2022-09-30T15:55:57;3.50;;;2.30;;
21258;SDS011;10787;53.364;-1.480;2022-09-30T16:01:10;4.70;;;2.93;;
21258;SDS011;10787;53.364;-1.480;2022-09-30T16:03:44;3.33;;;2.20;;
21258;SDS011;10787;53.364;-1.480;2022-09-30T16:06:13;4.40;;;2.70;;
21258;SDS011;10787;53.364;-1.480;2022-09-30T16:08:42;5.57;;;3.07;;
21258;SDS011;10787;53.364;-1.480;2022-09-30T16:11:16;4.07;;;2.47;;
21258;SDS011;10787;53.364;-1.480;2022-09-30T16:13:46;13.23;;;3.50;;
21258;SDS011;10787;53.364;-1.480;2022-09-30T16:16:19;4.10;;;3.00;;
21258;SDS011;10787;53.364;-1.480;2022-09-30T16:18:49;4.53;;;2.40;;
21258;SDS011;10787;53.364;-1.480;2022-09-30T16:23:54;2.80;;;2.33;;
21258;SDS011;10787;53.364;-1.480;2022-09-30T16:26:21;5.53;;;2.50;;
21258;SDS011;10787;53.364;-1.480;2022-09-30T16:28:54;3.47;;;2.07;;
21258;SDS011;10787;53.364;-1.480;2022-09-30T16:31:22;3.37;;;2.00;;
21258;SDS011;10787;53.364;-1.480;2022-09-30T16:33:48;3.17;;;2.10;;
21258;SDS011;10787;53.364;-1.480;2022-09-30T16:36:15;4.03;;;2.40;;
21258;SDS011;10787;53.364;-1.480;2022-09-30T16:38:41;3.40;;;1.70;;
21258;SDS011;10787;53.364;-1.480;2022-09-30T16:41:09;3.03;;;1.70;;
21258;SDS011;10787;53.364;-1.480;2022-09-30T16:43:36;2.37;;;1.87;;
21258;SDS011;10787;53.364;-1.480;2022-09-30T16:46:03;2.07;;;1.70;;
21258;SDS011;10787;53.364;-1.480;2022-09-30T16:48:29;1.90;;;1.50;;
21258;SDS011;10787;53.364;-1.480;2022-09-30T16:51:14;2.10;;;1.50;;
21258;SDS011;10787;53.364;-1.480;2022-09-30T16:53:41;2.00;;;1.53;;
21258;SDS011;10787;53.364;-1.480;2022-09-30T16:56:17;1.80;;;1.40;;
21258;SDS011;10787;53.364;-1.480;2022-09-30T16:58:44;2.30;;;1.43;;
21258;SDS011;10787;53.364;-1.480;2022-09-30T17:01:24;2.43;;;1.40;;
21258;SDS011;10787;53.364;-1.480;2022-09-30T17:03:54;3.57;;;1.77;;
21258;SDS011;10787;53.364;-1.480;2022-09-30T17:06:27;1.30;;;1.10;;
21258;SDS011;10787;53.364;-1.480;2022-09-30T17:08:55;1.40;;;1.17;;
21258;SDS011;10787;53.364;-1.480;2022-09-30T17:11:24;2.00;;;1.30;;
21258;SDS011;10787;53.364;-1.480;2022-09-30T17:13:55;1.93;;;1.30;;
21258;SDS011;10787;53.364;-1.480;2022-09-30T17:16:22;1.20;;;1.00;;
21258;SDS011;10787;53.364;-1.480;2022-09-30T17:18:48;2.60;;;1.93;;
21258;SDS011;10787;53.364;-1.480;2022-09-30T17:21:18;1.50;;;1.40;;
21258;SDS011;10787;53.364;-1.480;2022-09-30T17:23:45;1.37;;;1.10;;
21258;SDS011;10787;53.364;-1.480;2022-09-30T17:26:11;2.03;;;1.40;;
21258;SDS011;10787;53.364;-1.480;2022-09-30T17:28:39;1.30;;;1.20;;
21258;SDS011;10787;53.364;-1.480;2022-09-30T17:31:06;1.73;;;1.03;;
21258;SDS011;10787;53.364;-1.480;2022-09-30T17:33:34;1.30;;;1.00;;
21258;SDS011;10787;53.364;-1.480;2022-09-30T17:36:05;1.40;;;1.13;;
21258;SDS011;10787;53.364;-1.480;2022-09-30T17:38:37;3.17;;;1.93;;
21258;SDS011;10787;53.364;-1.480;2022-09-30T17:41:04;8.47;;;3.40;;
21258;SDS011;10787;53.364;-1.480;2022-09-30T17:43:50;8.30;;;3.37;;
21258;SDS011;10787;53.364;-1.480;2022-09-30T17:46:18;8.13;;;3.17;;
21258;SDS011;10787;53.364;-1.480;2022-09-30T17:48:47;6.67;;;3.10;;
21258;SDS011;10787;53.364;-1.480;2022-09-30T17:51:14;3.90;;;2.43;;
21258;SDS011;10787;53.364;-1.480;2022-09-30T17:53:43;7.93;;;4.20;;
21258;SDS011;10787;53.364;-1.480;2022-09-30T17:56:13;5.63;;;3.23;;
21258;SDS011;10787;53.364;-1.480;2022-09-30T17:58:43;8.53;;;4.10;;
21258;SDS011;10787;53.364;-1.480;2022-09-30T18:01:11;6.33;;;3.70;;
21258;SDS011;10787;53.364;-1.480;2022-09-30T18:03:38;5.33;;;3.93;;
21258;SDS011;10787;53.364;-1.480;2022-09-30T18:06:05;7.37;;;5.30;;
21258;SDS011;10787;53.364;-1.480;2022-09-30T18:08:31;11.93;;;5.40;;
21258;SDS011;10787;53.364;-1.480;2022-09-30T18:10:58;8.97;;;5.83;;
21258;SDS011;10787;53.364;-1.480;2022-09-30T18:13:25;10.57;;;7.00;;
21258;SDS011;10787;53.364;-1.480;2022-09-30T18:15:52;11.33;;;9.13;;
21258;SDS011;10787;53.364;-1.480;2022-09-30T18:18:19;9.30;;;5.90;;
21258;SDS011;10787;53.364;-1.480;2022-09-30T18:20:46;8.70;;;6.00;;
21258;SDS011;10787;53.364;-1.480;2022-09-30T18:23:14;10.47;;;6.60;;